KVYS/VYS METAR and TAF weather

Enter ICAO airport designator
Station Type Date Time Source
KVYS METAR 2018/12/15 04:35 UTC NOAA

KVYS 150435Z AUTO 04005KT 1 1/4SM BR OVC002 00/00 A3019 RMK AO2 T10021005


Station Type Date Time Source
KVYS Decoded METAR 2018/12/15 04:35 UTC NOAA

Peru, Illinois Valley Regional-Walter A Duncan Field Airport, IL, United States (KVYS) 41-21-07N 089-09-11W
Dec 14, 2018 - 11:35 PM EST / 2018.12.15 0435 UTC
Wind: from the NE (040 degrees) at 6 MPH (5 KT):0
Visibility: 1 1/4 mile(s):0
Sky conditions: overcast
Weather: mist
Temperature: 31.6 F (-0.2 C)
Windchill: 26 F (-3 C):1
Dew Point: 31.1 F (-0.5 C)
Relative Humidity: 97%
Pressure (altimeter): 30.19 in. Hg (1022 hPa)
ob: KVYS 150435Z AUTO 04005KT 1 1/4SM BR OVC002 00/00 A3019 RMK AO2 T10021005
cycle: 4

Station Type Date Time Source
KVYS TAF UTC NOAA

Error!


Example: see airport list